createdAt,value
2017-07-18T00:01:40.891Z,2.70
2017-07-18T00:04:15.647Z,2.60
2017-07-18T00:06:46.114Z,2.03
2017-07-18T00:09:15.933Z,2.50
2017-07-18T00:11:45.071Z,2.50
2017-07-18T00:14:15.972Z,2.10
2017-07-18T00:16:45.275Z,2.87
2017-07-18T00:19:16.107Z,2.70
2017-07-18T00:21:44.369Z,2.77
2017-07-18T00:24:16.443Z,2.80
2017-07-18T00:26:44.727Z,2.50
2017-07-18T00:29:12.289Z,1.70
2017-07-18T00:31:39.839Z,2.53
2017-07-18T00:34:15.306Z,2.53
2017-07-18T00:36:43.158Z,1.93
2017-07-18T00:39:16.515Z,2.07
2017-07-18T00:41:44.294Z,2.27
2017-07-18T00:44:17.644Z,2.87
2017-07-18T00:46:45.407Z,2.63
2017-07-18T00:49:12.949Z,2.00
2017-07-18T00:51:40.440Z,2.03
2017-07-18T00:54:08.263Z,2.37
2017-07-18T00:56:35.813Z,2.07
2017-07-18T00:59:04.093Z,2.20
2017-07-18T01:01:31.656Z,2.30
2017-07-18T01:04:05.767Z,2.27
2017-07-18T01:06:33.614Z,2.17
2017-07-18T01:09:06.921Z,2.47
2017-07-18T01:11:35.541Z,2.40
2017-07-18T01:14:06.268Z,2.80
2017-07-18T01:16:37.282Z,2.50
2017-07-18T01:19:15.263Z,2.10
2017-07-18T01:21:43.062Z,1.70
2017-07-18T01:24:11.321Z,2.03
2017-07-18T01:26:39.615Z,1.90
2017-07-18T01:29:07.177Z,2.33
2017-07-18T01:31:34.655Z,1.93
2017-07-18T01:34:05.472Z,1.90
2017-07-18T01:36:36.762Z,2.30
2017-07-18T01:39:05.603Z,2.70
2017-07-18T01:41:36.932Z,2.10
2017-07-18T01:44:04.515Z,2.93
2017-07-18T01:46:32.798Z,2.40
2017-07-18T01:49:00.304Z,2.20
2017-07-18T01:51:35.318Z,2.00
2017-07-18T01:54:02.860Z,2.83
2017-07-18T01:56:30.364Z,1.90
2017-07-18T01:59:04.696Z,1.70
2017-07-18T02:01:32.171Z,2.17
2017-07-18T02:04:06.398Z,2.27
2017-07-18T02:06:33.959Z,2.00
2017-07-18T02:09:07.514Z,1.97
2017-07-18T02:11:35.032Z,1.73
2017-07-18T02:14:05.527Z,1.57
2017-07-18T02:16:36.061Z,2.10
2017-07-18T02:19:03.548Z,1.93
2017-07-18T02:21:37.311Z,2.03
2017-07-18T02:24:05.708Z,1.70
2017-07-18T02:26:33.970Z,2.00
2017-07-18T02:29:01.575Z,2.00
2017-07-18T02:31:29.042Z,1.93
2017-07-18T02:34:05.016Z,2.03
2017-07-18T02:36:32.512Z,2.10
2017-07-18T02:39:06.971Z,1.70
2017-07-18T02:41:34.456Z,1.53
2017-07-18T02:44:04.997Z,1.90
2017-07-18T02:46:32.487Z,2.93
2017-07-18T02:49:00.738Z,1.80
2017-07-18T02:51:28.538Z,2.10
2017-07-18T02:53:56.094Z,2.33
2017-07-18T02:56:24.360Z,2.53
2017-07-18T02:58:52.656Z,2.20
2017-07-18T03:01:20.216Z,2.17
2017-07-18T03:03:55.418Z,2.40
2017-07-18T03:06:23.009Z,2.40
2017-07-18T03:08:50.572Z,2.13
2017-07-18T03:11:18.440Z,2.00
2017-07-18T03:13:56.671Z,2.00
2017-07-18T03:16:25.635Z,1.90
2017-07-18T03:18:56.794Z,2.13
2017-07-18T03:21:24.273Z,2.50
2017-07-18T03:23:55.024Z,2.30
2017-07-18T03:26:25.459Z,2.40
2017-07-18T03:28:53.216Z,2.07
2017-07-18T03:31:26.509Z,2.70
2017-07-18T03:33:55.646Z,2.70
2017-07-18T03:36:26.846Z,2.60
2017-07-18T03:38:54.333Z,1.80
2017-07-18T03:41:22.128Z,1.83
2017-07-18T03:43:49.685Z,2.27
2017-07-18T03:46:17.184Z,1.90
2017-07-18T03:48:46.126Z,1.93
2017-07-18T03:51:14.453Z,2.10
2017-07-18T03:53:41.946Z,2.10
2017-07-18T03:56:15.280Z,2.03
2017-07-18T03:58:46.063Z,2.40
2017-07-18T04:01:13.836Z,2.33
2017-07-18T04:03:41.426Z,2.17
2017-07-18T04:06:15.819Z,1.93
2017-07-18T04:08:43.313Z,1.90
2017-07-18T04:11:10.809Z,2.73
2017-07-18T04:13:38.340Z,2.50
2017-07-18T04:16:15.716Z,2.03
2017-07-18T04:18:43.509Z,1.93
2017-07-18T04:21:16.773Z,2.30
2017-07-18T04:23:44.634Z,2.27
2017-07-18T04:26:12.899Z,1.93
2017-07-18T04:28:46.875Z,1.90
2017-07-18T04:31:14.382Z,2.10
2017-07-18T04:33:41.878Z,1.97
2017-07-18T04:36:09.413Z,2.37
2017-07-18T04:38:36.971Z,2.83
2017-07-18T04:41:06.273Z,2.20
2017-07-18T04:43:35.524Z,2.10
2017-07-18T04:46:06.311Z,1.93
2017-07-18T04:48:33.795Z,1.97
2017-07-18T04:51:01.324Z,2.83
2017-07-18T04:53:28.828Z,1.47
2017-07-18T04:55:56.303Z,2.50
2017-07-18T04:58:24.060Z,2.30
2017-07-18T05:00:57.337Z,2.07
2017-07-18T05:03:25.459Z,2.13
2017-07-18T05:05:56.636Z,2.43
2017-07-18T05:08:25.594Z,2.40
2017-07-18T05:10:53.842Z,2.23
2017-07-18T05:13:27.436Z,2.00
2017-07-18T05:15:54.905Z,2.23
2017-07-18T05:18:25.737Z,2.00
2017-07-18T05:20:54.001Z,2.20
2017-07-18T05:23:25.013Z,2.00
2017-07-18T05:25:52.803Z,2.33
2017-07-18T05:28:26.035Z,2.00
2017-07-18T05:30:57.195Z,2.03
2017-07-18T05:33:24.672Z,2.00
2017-07-18T05:35:52.161Z,2.07
2017-07-18T05:38:19.663Z,2.20
2017-07-18T05:40:47.169Z,2.20
2017-07-18T05:43:15.920Z,2.23
2017-07-18T05:45:43.409Z,1.93
2017-07-18T05:48:10.922Z,2.80
2017-07-18T05:50:45.178Z,1.80
2017-07-18T05:53:12.664Z,2.33
2017-07-18T05:55:40.475Z,2.50
2017-07-18T05:58:07.953Z,2.20
2017-07-18T06:00:35.445Z,1.47
2017-07-18T06:03:06.472Z,2.37
2017-07-18T06:05:35.004Z,2.80
2017-07-18T06:08:03.627Z,2.77
2017-07-18T06:10:36.999Z,2.03
2017-07-18T06:13:06.085Z,2.33
2017-07-18T06:15:35.292Z,2.50
2017-07-18T06:18:02.781Z,1.97
2017-07-18T06:20:30.293Z,2.27
2017-07-18T06:23:04.774Z,2.30
2017-07-18T06:25:32.533Z,2.10
2017-07-18T06:28:00.015Z,2.57
2017-07-18T06:30:35.586Z,2.10
2017-07-18T06:33:05.346Z,2.30
2017-07-18T06:35:32.850Z,3.10
2017-07-18T06:38:06.306Z,2.80
2017-07-18T06:40:35.154Z,2.90
2017-07-18T06:43:05.636Z,2.67
2017-07-18T06:45:36.267Z,2.70
2017-07-18T06:48:07.152Z,3.63
2017-07-18T06:50:35.360Z,2.80
2017-07-18T06:53:05.893Z,3.50
2017-07-18T06:55:36.394Z,3.70
2017-07-18T06:58:05.035Z,3.17
2017-07-18T07:00:36.021Z,2.20
2017-07-18T07:03:05.166Z,2.90
2017-07-18T07:05:32.657Z,2.60
2017-07-18T07:08:00.924Z,2.87
2017-07-18T07:10:35.659Z,2.73
2017-07-18T07:13:03.435Z,2.83
2017-07-18T07:15:36.919Z,2.77
2017-07-18T07:18:05.304Z,2.93
2017-07-18T07:20:32.785Z,3.33
2017-07-18T07:23:00.285Z,3.23
2017-07-18T07:25:28.091Z,3.00
2017-07-18T07:28:05.722Z,2.67
2017-07-18T07:30:33.547Z,3.30
2017-07-18T07:33:06.963Z,2.83
2017-07-18T07:35:34.831Z,2.87
2017-07-18T07:38:05.612Z,2.93
2017-07-18T07:40:33.109Z,3.40
2017-07-18T07:43:07.197Z,2.80
2017-07-18T07:45:35.717Z,3.23
2017-07-18T07:48:03.198Z,2.40
2017-07-18T07:50:36.733Z,2.30
2017-07-18T07:53:04.224Z,2.90
2017-07-18T07:55:31.702Z,2.17
2017-07-18T07:57:59.206Z,3.30
2017-07-18T08:00:26.686Z,2.93
2017-07-18T08:02:56.205Z,2.77
2017-07-18T08:05:25.418Z,3.20
2017-07-18T08:07:56.451Z,2.80
2017-07-18T08:10:23.939Z,3.10
2017-07-18T08:12:51.428Z,3.10
2017-07-18T08:15:24.851Z,3.10
2017-07-18T08:17:52.339Z,3.20
2017-07-18T08:20:20.190Z,3.17
2017-07-18T08:22:54.749Z,2.37
2017-07-18T08:25:25.776Z,2.73
2017-07-18T08:27:55.028Z,2.73
2017-07-18T08:30:25.840Z,3.07
2017-07-18T08:32:53.508Z,2.43
2017-07-18T08:35:27.524Z,2.73
2017-07-18T08:37:55.019Z,2.47
2017-07-18T08:40:25.847Z,2.97
2017-07-18T08:42:56.455Z,3.03
2017-07-18T08:45:25.069Z,2.70
2017-07-18T08:47:52.827Z,3.30
2017-07-18T08:50:25.992Z,2.97
2017-07-18T08:52:57.172Z,2.70
2017-07-18T08:55:25.574Z,3.23
2017-07-18T08:57:56.076Z,3.53
2017-07-18T09:00:26.914Z,3.00
2017-07-18T09:02:54.397Z,3.13
2017-07-18T09:05:21.888Z,2.73
2017-07-18T09:07:55.485Z,2.50
2017-07-18T09:10:22.980Z,3.60
2017-07-18T09:12:56.652Z,3.37
2017-07-18T09:15:24.140Z,3.60
2017-07-18T09:17:55.659Z,2.93
2017-07-18T09:20:23.405Z,2.87
2017-07-18T09:22:57.237Z,2.90
2017-07-18T09:25:25.959Z,3.27
2017-07-18T09:27:55.106Z,3.50
2017-07-18T09:30:25.838Z,2.90
2017-07-18T09:32:53.576Z,3.53
2017-07-18T09:35:27.234Z,3.40
2017-07-18T09:37:55.741Z,2.37
2017-07-18T09:40:26.344Z,2.83
2017-07-18T09:42:56.764Z,2.67
2017-07-18T09:45:25.371Z,3.33
2017-07-18T09:47:56.323Z,3.17
2017-07-18T09:50:23.823Z,3.03
2017-07-18T09:52:51.309Z,3.73
2017-07-18T09:55:25.419Z,3.70
2017-07-18T09:57:52.898Z,3.53
2017-07-18T10:00:27.054Z,3.10
2017-07-18T10:02:54.538Z,3.20
2017-07-18T10:05:25.267Z,3.20
2017-07-18T10:07:55.888Z,3.23
2017-07-18T10:10:26.436Z,3.57
2017-07-18T10:12:55.380Z,2.80
2017-07-18T10:15:26.497Z,2.90
2017-07-18T10:17:56.322Z,2.97
2017-07-18T10:20:25.693Z,2.60
2017-07-18T10:22:53.193Z,3.03
2017-07-18T10:25:20.679Z,2.43
2017-07-18T10:27:48.167Z,2.90
2017-07-18T10:30:26.424Z,2.53
2017-07-18T10:32:53.919Z,2.53
2017-07-18T10:35:21.411Z,3.00
2017-07-18T10:37:48.911Z,2.50
2017-07-18T10:40:26.520Z,2.43
2017-07-18T10:42:54.356Z,2.60
2017-07-18T10:45:21.844Z,2.80
2017-07-18T10:47:49.332Z,2.97
2017-07-18T10:50:17.136Z,1.77
2017-07-18T10:52:45.872Z,2.67
2017-07-18T10:55:16.521Z,2.50
2017-07-18T10:57:44.285Z,2.70
2017-07-18T11:00:11.777Z,3.00
2017-07-18T11:02:40.042Z,2.43
2017-07-18T11:05:08.316Z,2.60
2017-07-18T11:07:35.800Z,2.70
2017-07-18T11:10:06.714Z,2.40
2017-07-18T11:12:35.903Z,1.90
2017-07-18T11:15:03.389Z,2.07
2017-07-18T11:17:37.052Z,2.33
2017-07-18T11:20:04.559Z,3.27
2017-07-18T11:22:32.307Z,2.70
2017-07-18T11:25:06.121Z,2.90
2017-07-18T11:27:33.902Z,2.47
2017-07-18T11:30:01.388Z,2.40
2017-07-18T11:32:28.875Z,3.83
2017-07-18T11:34:56.382Z,2.40
2017-07-18T11:37:23.872Z,2.83
2017-07-18T11:39:55.377Z,2.97
2017-07-18T11:42:22.870Z,2.50
2017-07-18T11:44:50.346Z,2.87
2017-07-18T11:47:17.844Z,2.57
2017-07-18T11:49:45.335Z,2.97
2017-07-18T11:52:16.345Z,2.60
2017-07-18T11:54:43.823Z,3.37
2017-07-18T11:57:11.315Z,2.33
2017-07-18T11:59:39.106Z,2.43
2017-07-18T12:02:06.596Z,2.60
2017-07-18T12:04:34.094Z,2.40
2017-07-18T12:07:01.855Z,2.97
2017-07-18T12:09:35.415Z,3.00
2017-07-18T12:12:06.554Z,2.13
2017-07-18T12:14:35.752Z,2.30
2017-07-18T12:17:06.774Z,3.00
2017-07-18T12:19:35.029Z,3.37
2017-07-18T12:22:05.784Z,2.20
2017-07-18T12:24:34.389Z,2.17
2017-07-18T12:27:01.907Z,2.87
2017-07-18T12:29:29.394Z,2.93
2017-07-18T12:31:56.892Z,2.43
2017-07-18T12:37:05.586Z,2.10
2017-07-18T12:39:36.800Z,1.90
2017-07-18T12:42:04.278Z,2.30
2017-07-18T12:44:31.770Z,2.70
2017-07-18T12:46:59.306Z,2.37
2017-07-18T12:49:27.901Z,1.93
2017-07-18T12:52:05.821Z,2.40
2017-07-18T12:54:33.595Z,1.97
2017-07-18T12:57:01.079Z,2.83
2017-07-18T12:59:28.558Z,2.23
2017-07-18T13:02:05.396Z,2.00
2017-07-18T13:04:32.903Z,2.87
2017-07-18T13:07:00.391Z,2.23
2017-07-18T13:09:35.136Z,2.30
2017-07-18T13:12:02.964Z,2.40
2017-07-18T13:14:30.456Z,2.37
2017-07-18T13:16:57.937Z,2.80
2017-07-18T13:19:25.432Z,2.33
2017-07-18T13:21:56.845Z,2.33
2017-07-18T13:24:25.683Z,1.87
2017-07-18T13:26:53.163Z,2.87
2017-07-18T13:29:26.585Z,2.20
2017-07-18T13:31:57.012Z,2.07
2017-07-18T13:34:24.495Z,1.77
2017-07-18T13:36:51.980Z,2.27
2017-07-18T13:39:19.464Z,2.40
2017-07-18T13:41:55.255Z,2.87
2017-07-18T13:44:23.530Z,2.50
2017-07-18T13:46:51.016Z,2.30
2017-07-18T13:49:18.787Z,2.50
2017-07-18T13:51:56.576Z,2.20
2017-07-18T13:54:25.668Z,2.70
2017-07-18T13:56:55.008Z,3.00
2017-07-18T13:59:22.496Z,1.97
2017-07-18T14:01:55.834Z,2.83
2017-07-18T14:04:24.089Z,2.57
2017-07-18T14:06:55.773Z,2.07
2017-07-18T14:09:24.020Z,2.60
2017-07-18T14:11:57.840Z,2.10
2017-07-18T14:14:25.322Z,2.30
2017-07-18T14:16:52.881Z,2.70
2017-07-18T14:19:26.640Z,2.40
2017-07-18T14:21:55.539Z,2.50
2017-07-18T14:24:23.311Z,3.30
2017-07-18T14:26:50.792Z,2.57
2017-07-18T14:29:18.274Z,2.80
2017-07-18T14:31:56.318Z,2.80
2017-07-18T14:34:23.811Z,2.90
2017-07-18T14:36:51.399Z,2.47
2017-07-18T14:39:18.892Z,2.70
2017-07-18T14:41:56.453Z,2.57
2017-07-18T14:44:24.239Z,2.60
2017-07-18T14:46:51.731Z,2.73
2017-07-18T14:49:25.572Z,3.07
2017-07-18T14:51:56.090Z,2.77
2017-07-18T14:54:27.032Z,2.63
2017-07-18T14:56:54.519Z,2.70
2017-07-18T14:59:25.842Z,3.07
2017-07-18T15:01:53.594Z,3.07
2017-07-18T15:04:25.094Z,3.13
2017-07-18T15:06:52.594Z,2.60
2017-07-18T15:09:20.130Z,2.83
2017-07-18T15:11:47.624Z,2.80
2017-07-18T15:14:25.798Z,2.67
2017-07-18T15:16:53.302Z,2.87
2017-07-18T15:19:27.059Z,2.37
2017-07-18T15:21:54.556Z,3.17
2017-07-18T15:24:22.050Z,3.70
2017-07-18T15:26:49.844Z,2.93
2017-07-18T15:29:25.141Z,3.20
2017-07-18T15:31:56.124Z,2.70
2017-07-18T15:34:25.325Z,2.73
2017-07-18T15:36:56.411Z,3.03
2017-07-18T15:39:25.599Z,3.10
2017-07-18T15:41:53.108Z,2.80
2017-07-18T15:44:20.937Z,3.10
2017-07-18T15:46:48.436Z,3.37
2017-07-18T15:49:15.906Z,2.70
2017-07-18T15:51:45.540Z,2.83
2017-07-18T15:54:13.018Z,2.87
2017-07-18T15:56:40.512Z,2.60
2017-07-18T15:59:14.998Z,3.13
2017-07-18T16:01:45.773Z,2.90
2017-07-18T16:04:16.750Z,2.63
2017-07-18T16:06:45.929Z,3.20
2017-07-18T16:09:16.789Z,2.80
2017-07-18T16:11:44.360Z,3.23
2017-07-18T16:14:15.554Z,3.37
2017-07-18T16:16:43.071Z,2.33
2017-07-18T16:19:10.581Z,2.80
2017-07-18T16:21:38.392Z,3.03
2017-07-18T16:24:15.902Z,2.40
2017-07-18T16:26:43.746Z,3.20
2017-07-18T16:29:17.328Z,3.37
2017-07-18T16:31:45.128Z,2.60
2017-07-18T16:34:15.812Z,2.60
2017-07-18T16:36:45.755Z,6.10
2017-07-18T16:39:13.243Z,2.97
2017-07-18T16:41:46.772Z,3.93
2017-07-18T16:44:14.265Z,3.20
2017-07-18T16:46:42.516Z,3.30
2017-07-18T16:49:16.182Z,2.90
2017-07-18T16:51:47.017Z,3.50
2017-07-18T16:54:15.984Z,3.50
2017-07-18T16:56:43.479Z,2.83
2017-07-18T16:59:17.872Z,3.40
2017-07-18T17:01:45.371Z,3.63
2017-07-18T17:04:12.850Z,3.10
2017-07-18T17:06:40.349Z,3.33
2017-07-18T17:09:14.984Z,3.00
2017-07-18T17:11:42.836Z,2.83
2017-07-18T17:14:10.317Z,3.40
2017-07-18T17:16:45.179Z,3.20
2017-07-18T17:19:15.731Z,2.97
2017-07-18T17:21:45.771Z,3.10
2017-07-18T17:24:13.357Z,3.03
2017-07-18T17:26:40.846Z,3.20
2017-07-18T17:29:15.013Z,2.63
2017-07-18T17:31:45.744Z,3.17
2017-07-18T17:34:16.663Z,3.83
2017-07-18T17:36:44.159Z,3.10
2017-07-18T17:39:15.383Z,3.30
2017-07-18T17:41:46.065Z,3.40
2017-07-18T17:44:16.593Z,2.83
2017-07-18T17:46:44.393Z,2.90
2017-07-18T17:49:11.960Z,3.47
2017-07-18T17:51:39.457Z,3.10
2017-07-18T17:54:16.942Z,3.13
2017-07-18T17:56:44.433Z,2.30
2017-07-18T17:59:11.922Z,3.40
2017-07-18T18:01:46.858Z,2.60
2017-07-18T18:04:25.226Z,3.10
2017-07-18T18:06:56.348Z,3.00
2017-07-18T18:09:23.836Z,2.63
2017-07-18T18:11:57.424Z,2.50
2017-07-18T18:14:25.916Z,3.53
2017-07-18T18:16:54.183Z,2.93
2017-07-18T18:19:21.670Z,3.30
2017-07-18T18:21:49.180Z,3.80
2017-07-18T18:24:17.024Z,3.40
2017-07-18T18:26:44.499Z,3.47
2017-07-18T18:29:15.705Z,3.90
2017-07-18T18:31:43.196Z,3.23
2017-07-18T18:34:16.659Z,2.70
2017-07-18T18:36:45.372Z,4.07
2017-07-18T18:39:12.864Z,3.30
2017-07-18T18:41:46.376Z,3.70
2017-07-18T18:44:13.872Z,2.60
2017-07-18T18:46:42.136Z,3.07
2017-07-18T18:49:17.166Z,3.70
2017-07-18T18:51:44.640Z,3.83
2017-07-18T18:54:12.127Z,4.10
2017-07-18T18:56:39.973Z,3.10
2017-07-18T18:59:07.468Z,3.33
2017-07-18T19:01:34.968Z,3.33
2017-07-18T19:04:06.111Z,3.53
2017-07-18T19:06:33.593Z,3.00
2017-07-18T19:09:01.403Z,3.73
2017-07-18T19:11:28.920Z,3.20
2017-07-18T19:13:56.405Z,3.50
2017-07-18T19:16:23.907Z,3.70
2017-07-18T19:18:51.382Z,2.30
2017-07-18T19:21:19.976Z,3.20
2017-07-18T19:23:54.837Z,3.03
2017-07-18T19:26:25.949Z,3.97
2017-07-18T19:28:53.437Z,3.20
2017-07-18T19:31:20.929Z,3.63
2017-07-18T19:33:48.727Z,3.67
2017-07-18T19:36:16.280Z,2.97
2017-07-18T19:38:45.649Z,3.23
2017-07-18T19:41:13.455Z,3.57
2017-07-18T19:43:40.950Z,3.90
2017-07-18T19:46:15.345Z,2.97
2017-07-18T19:48:42.869Z,2.70
2017-07-18T19:51:10.352Z,3.30
2017-07-18T19:53:45.018Z,3.47
2017-07-18T19:56:12.516Z,2.40
2017-07-18T19:58:40.015Z,3.20
2017-07-18T20:01:15.889Z,3.23
2017-07-18T20:03:43.510Z,3.40
2017-07-18T20:06:17.942Z,3.07
2017-07-18T20:08:45.627Z,2.53
2017-07-18T20:11:13.163Z,3.30
2017-07-18T20:13:41.025Z,3.10
2017-07-18T20:16:14.949Z,3.00
2017-07-18T20:18:46.170Z,2.80
2017-07-18T20:21:13.736Z,2.60
2017-07-18T20:23:41.294Z,3.70
2017-07-18T20:26:15.611Z,3.33
2017-07-18T20:28:43.170Z,3.80
2017-07-18T20:31:18.014Z,4.20
2017-07-18T20:33:45.511Z,2.53
2017-07-18T20:36:16.047Z,3.27
2017-07-18T20:38:43.790Z,3.53
2017-07-18T20:41:11.267Z,3.13
2017-07-18T20:43:45.923Z,3.77
2017-07-18T20:46:13.503Z,3.10
2017-07-18T20:48:47.168Z,3.33
2017-07-18T20:51:14.667Z,3.20
2017-07-18T20:53:45.325Z,3.37
2017-07-18T20:56:12.856Z,3.37
2017-07-18T20:58:46.338Z,2.90
2017-07-18T21:01:14.124Z,3.87
2017-07-18T21:03:41.607Z,3.90
2017-07-18T21:06:15.447Z,4.37
2017-07-18T21:08:45.942Z,3.50
2017-07-18T21:11:13.426Z,4.30
2017-07-18T21:13:46.976Z,3.50
2017-07-18T21:16:15.753Z,3.47
2017-07-18T21:18:43.629Z,3.07
2017-07-18T21:21:11.189Z,4.17
2017-07-18T21:23:38.742Z,3.50
2017-07-18T21:26:07.028Z,3.90
2017-07-18T21:28:34.520Z,3.37
2017-07-18T21:31:02.351Z,3.40
2017-07-18T21:33:35.944Z,4.00
2017-07-18T21:36:06.995Z,2.97
2017-07-18T21:38:35.284Z,3.90
2017-07-18T21:41:02.763Z,3.73
2017-07-18T21:43:36.411Z,3.33
2017-07-18T21:46:04.704Z,3.77
2017-07-18T21:48:32.272Z,4.40
2017-07-18T21:51:06.023Z,3.93
2017-07-18T21:53:33.502Z,3.67
2017-07-18T21:56:01.279Z,3.43
2017-07-18T21:58:28.767Z,3.97
2017-07-18T22:01:06.743Z,4.47
2017-07-18T22:03:35.026Z,3.67
2017-07-18T22:06:02.588Z,4.23
2017-07-18T22:08:37.663Z,4.60
2017-07-18T22:11:14.903Z,3.13
2017-07-18T22:13:43.490Z,3.40
2017-07-18T22:16:10.977Z,3.07
2017-07-18T22:18:45.878Z,4.67
2017-07-18T22:21:14.172Z,3.43
2017-07-18T22:23:41.729Z,3.77
2017-07-18T22:26:15.409Z,4.00
2017-07-18T22:28:43.691Z,3.43
2017-07-18T22:31:12.325Z,3.33
2017-07-18T22:33:46.190Z,4.30
2017-07-18T22:36:17.334Z,4.00
2017-07-18T22:38:45.543Z,4.40
2017-07-18T22:41:13.097Z,3.87
2017-07-18T22:43:46.435Z,5.50
2017-07-18T22:46:13.911Z,4.20
2017-07-18T22:48:41.692Z,3.50
2017-07-18T22:51:15.159Z,3.80
2017-07-18T22:53:46.221Z,4.27
2017-07-18T22:56:15.378Z,3.70
2017-07-18T22:58:42.891Z,3.43
2017-07-18T23:01:10.448Z,3.67
2017-07-18T23:03:38.003Z,4.17
2017-07-18T23:06:15.795Z,3.73
2017-07-18T23:08:43.280Z,4.17
2017-07-18T23:11:10.752Z,4.07
2017-07-18T23:13:45.141Z,4.30
2017-07-18T23:16:12.700Z,4.20
2017-07-18T23:18:41.285Z,4.10
2017-07-18T23:21:08.776Z,4.90
2017-07-18T23:23:36.243Z,5.10
2017-07-18T23:26:03.774Z,3.77
2017-07-18T23:28:31.255Z,3.83
2017-07-18T23:31:05.515Z,4.00
2017-07-18T23:33:36.995Z,3.60
2017-07-18T23:36:04.479Z,4.10
2017-07-18T23:38:31.972Z,4.43
2017-07-18T23:40:59.447Z,4.20
2017-07-18T23:43:35.278Z,3.97
2017-07-18T23:46:02.759Z,4.40
2017-07-18T23:48:30.239Z,4.20
2017-07-18T23:50:58.007Z,5.00
2017-07-18T23:53:36.008Z,5.00
2017-07-18T23:56:07.034Z,3.70
2017-07-18T23:58:35.335Z,4.80
